Time;durP1;ratioP1;P1;durP2;ratioP2;P2;SDS_P1;SDS_P2;PMS_P1;PMS_P2;Temp;Humidity;BMP_temperature;BMP_pressure;BME280_temperature;BME280_humidity;BME280_pressure;Samples;Min_cycle;Max_cycle;Signal;HPM_P1;HPM_P2
2022/08/03 00:00:40;;;;;;;6.63;3.50;;;18.20;99.90;;;;;;5029991;28;20064;-67
2022/08/03 00:03:05;;;;;;;8.85;4.13;;;18.20;99.90;;;;;;5034033;28;20251;-67
2022/08/03 00:05:34;;;;;;;7.03;3.40;;;18.20;99.90;;;;;;5029043;28;20083;-67
2022/08/03 00:08:00;;;;;;;6.78;3.53;;;18.10;99.90;;;;;;5049292;28;20045;-67
2022/08/03 00:10:26;;;;;;;8.88;3.80;;;18.10;99.90;;;;;;5036817;28;20040;-67
2022/08/03 00:12:52;;;;;;;8.38;3.47;;;18.10;99.90;;;;;;5033519;28;20037;-67
2022/08/03 00:15:19;;;;;;;10.07;4.15;;;18.10;99.90;;;;;;5016895;28;20120;-67
2022/08/03 00:17:45;;;;;;;7.47;3.08;;;18.00;99.90;;;;;;5056626;28;20037;-67
2022/08/03 00:20:10;;;;;;;6.13;3.30;;;18.00;99.90;;;;;;5030625;28;20040;-67
2022/08/03 00:22:36;;;;;;;5.10;2.83;;;18.00;99.90;;;;;;5022386;28;20128;-67
2022/08/03 00:25:03;;;;;;;6.53;2.90;;;18.00;99.90;;;;;;5046954;28;20041;-67
2022/08/03 00:27:28;;;;;;;6.03;3.10;;;17.90;99.90;;;;;;5031424;28;20048;-67
2022/08/03 00:29:54;;;;;;;7.35;2.90;;;17.90;99.90;;;;;;5017727;28;20051;-67
2022/08/03 00:32:19;;;;;;;6.95;2.90;;;17.90;99.90;;;;;;5032650;28;20044;-67
2022/08/03 00:34:45;;;;;;;8.65;3.10;;;17.80;99.90;;;;;;5035198;28;20056;-67
2022/08/03 00:37:10;;;;;;;5.88;2.55;;;17.80;99.90;;;;;;5033375;28;20033;-67
2022/08/03 00:39:36;;;;;;;9.82;2.58;;;17.70;99.90;;;;;;5049478;28;20080;-67
2022/08/03 00:42:05;;;;;;;6.50;2.75;;;17.70;99.90;;;;;;5034586;28;20045;-67
2022/08/03 00:44:31;;;;;;;3.90;2.30;;;17.70;99.90;;;;;;5034897;28;20041;-67
2022/08/03 00:46:56;;;;;;;7.05;2.60;;;17.70;99.90;;;;;;5016346;28;20037;-67
2022/08/03 00:49:23;;;;;;;4.28;2.55;;;17.70;99.90;;;;;;5034055;28;20037;-67
2022/08/03 00:51:48;;;;;;;6.68;2.78;;;17.70;99.90;;;;;;5020784;28;20574;-67
2022/08/03 00:54:16;;;;;;;6.15;2.38;;;17.60;99.90;;;;;;5006460;28;20060;-67
2022/08/03 00:56:42;;;;;;;4.25;2.67;;;17.60;99.90;;;;;;5033385;28;20120;-67
2022/08/03 00:59:09;;;;;;;5.80;2.85;;;17.60;99.90;;;;;;5032588;28;20040;-67
2022/08/03 01:01:35;;;;;;;6.47;2.72;;;17.60;99.90;;;;;;5016949;28;20053;-67
2022/08/03 01:04:00;;;;;;;6.97;2.70;;;17.60;99.90;;;;;;5033684;28;20049;-67
2022/08/03 01:06:42;;;;;;;7.22;2.70;;;17.60;99.90;;;;;;5033411;28;20083;-67
2022/08/03 01:09:56;;;;;;;6.07;2.80;;;17.50;99.90;;;;;;5033808;28;20037;-67
2022/08/03 01:12:34;;;;;;;5.20;2.40;;;17.50;99.90;;;;;;4967530;28;20294;-67
2022/08/03 01:15:25;;;;;;;5.18;2.45;;;17.50;99.90;;;;;;5031299;28;20067;-67
2022/08/03 01:18:24;;;;;;;5.57;2.60;;;17.50;99.90;;;;;;5017053;28;20041;-67
2022/08/03 01:20:55;;;;;;;4.75;2.50;;;17.50;99.90;;;;;;5047231;28;20362;-67
2022/08/03 01:23:38;;;;;;;5.93;2.17;;;17.50;99.90;;;;;;5034153;28;20764;-67
2022/08/03 01:26:26;;;;;;;4.78;2.20;;;17.50;99.90;;;;;;5012457;28;20045;-67
2022/08/03 01:29:27;;;;;;;5.70;2.30;;;17.50;99.90;;;;;;5025155;28;20124;-67
2022/08/03 01:32:01;;;;;;;10.45;2.17;;;17.50;99.90;;;;;;5008880;28;20053;-67
2022/08/03 01:34:32;;;;;;;3.95;1.60;;;17.50;99.90;;;;;;5015969;28;20044;-67
2022/08/03 01:37:01;;;;;;;5.78;2.35;;;17.50;99.90;;;;;;5051379;28;20467;-67
2022/08/03 01:39:30;;;;;;;6.93;2.30;;;17.50;99.90;;;;;;5026677;28;20037;-67
2022/08/03 01:42:01;;;;;;;6.32;2.20;;;17.40;99.90;;;;;;5016115;28;20037;-67
2022/08/03 01:44:30;;;;;;;5.63;1.95;;;17.50;99.90;;;;;;5016999;28;20029;-67
2022/08/03 01:47:00;;;;;;;7.00;2.00;;;17.50;99.90;;;;;;5030307;28;20044;-67
2022/08/03 01:49:32;;;;;;;3.60;1.88;;;17.50;99.90;;;;;;5032281;28;20040;-67
2022/08/03 01:51:59;;;;;;;5.18;2.33;;;17.50;99.90;;;;;;5029385;28;20045;-70
2022/08/03 01:54:26;;;;;;;6.05;2.10;;;17.50;99.90;;;;;;5018927;28;20056;-67
2022/08/03 01:56:55;;;;;;;6.20;2.10;;;17.50;99.90;;;;;;5025166;28;20038;-67
2022/08/03 01:59:22;;;;;;;7.85;2.03;;;17.40;99.90;;;;;;5024908;28;20424;-67
2022/08/03 02:01:49;;;;;;;5.53;1.70;;;17.40;99.90;;;;;;5021053;28;20061;-68
2022/08/03 02:04:17;;;;;;;3.90;1.83;;;17.40;99.90;;;;;;5021666;28;20056;-69
2022/08/03 02:06:45;;;;;;;4.00;2.00;;;17.40;99.90;;;;;;5021716;28;20034;-69
2022/08/03 02:09:12;;;;;;;8.10;1.80;;;17.40;99.90;;;;;;5004937;28;20037;-69
2022/08/03 02:11:39;;;;;;;6.57;1.90;;;17.40;99.90;;;;;;5019757;28;20422;-69
2022/08/03 02:14:06;;;;;;;5.38;1.85;;;17.40;99.90;;;;;;5029249;28;20029;-69
2022/08/03 02:16:33;;;;;;;7.28;1.90;;;17.40;99.90;;;;;;5023851;28;20049;-69
2022/08/03 02:19:00;;;;;;;5.50;2.10;;;17.40;99.90;;;;;;5020414;28;20041;-69
2022/08/03 02:21:28;;;;;;;4.60;1.52;;;17.30;99.90;;;;;;5039939;28;20048;-69
2022/08/03 02:23:54;;;;;;;5.68;1.75;;;17.30;99.90;;;;;;5023195;28;20481;-69
2022/08/03 02:26:22;;;;;;;5.22;1.92;;;17.30;99.90;;;;;;5003477;28;20034;-69
2022/08/03 02:28:51;;;;;;;3.97;1.98;;;17.30;99.90;;;;;;5024909;28;20045;-69
2022/08/03 02:31:23;;;;;;;7.97;2.38;;;17.20;99.90;;;;;;5017772;28;20053;-69
2022/08/03 02:33:56;;;;;;;5.85;1.85;;;17.20;99.90;;;;;;5018449;28;20046;-69
2022/08/03 02:36:27;;;;;;;3.47;1.92;;;17.20;99.90;;;;;;5020490;28;20037;-69
2022/08/03 02:38:57;;;;;;;3.25;1.80;;;17.20;99.90;;;;;;5026131;28;20043;-69
2022/08/03 02:41:28;;;;;;;5.55;2.08;;;17.20;99.90;;;;;;5023645;28;20069;-69
2022/08/03 02:43:56;;;;;;;4.10;2.13;;;17.20;99.90;;;;;;5019663;28;20164;-69
2022/08/03 02:46:29;;;;;;;9.75;2.08;;;17.20;99.90;;;;;;5021887;28;20049;-69
2022/08/03 02:48:56;;;;;;;4.20;1.85;;;17.20;99.90;;;;;;5022729;28;20033;-69
2022/08/03 02:51:23;;;;;;;6.75;2.22;;;17.20;99.90;;;;;;5019108;28;20037;-69
2022/08/03 02:53:50;;;;;;;5.88;2.40;;;17.20;99.90;;;;;;5020634;28;20061;-69
2022/08/03 02:56:17;;;;;;;5.63;2.47;;;17.20;99.90;;;;;;5021447;28;20037;-69
2022/08/03 02:58:44;;;;;;;8.05;2.80;;;17.20;99.90;;;;;;5024102;28;20036;-69
2022/08/03 03:01:11;;;;;;;4.93;2.58;;;17.10;99.90;;;;;;5022822;28;20049;-69
2022/08/03 03:03:37;;;;;;;3.53;2.22;;;17.20;99.90;;;;;;5031669;28;20055;-69
2022/08/03 03:06:04;;;;;;;5.25;2.20;;;17.10;99.90;;;;;;5021159;28;20120;-69
2022/08/03 03:08:30;;;;;;;5.43;2.15;;;17.10;99.90;;;;;;5021805;23;20084;-75
2022/08/03 03:10:59;;;;;;;5.65;2.30;;;17.10;99.90;;;;;;5007955;28;20042;-75
2022/08/03 03:13:29;;;;;;;8.27;2.97;;;17.10;99.90;;;;;;5005442;28;20121;-75
2022/08/03 03:15:58;;;;;;;5.28;2.40;;;17.10;99.90;;;;;;4991190;28;20038;-74
2022/08/03 03:18:26;;;;;;;5.93;2.38;;;17.10;99.90;;;;;;4981503;28;20129;-74
2022/08/03 03:20:52;;;;;;;5.88;2.55;;;17.10;99.90;;;;;;4986702;28;20056;-75
2022/08/03 03:23:20;;;;;;;6.70;2.65;;;17.10;99.90;;;;;;4988782;28;20041;-75
2022/08/03 03:25:47;;;;;;;7.82;2.50;;;17.10;99.90;;;;;;4994017;28;20049;-75
2022/08/03 03:28:13;;;;;;;5.38;2.67;;;17.10;99.90;;;;;;4990867;28;20049;-75
2022/08/03 03:30:39;;;;;;;4.68;2.15;;;17.10;99.90;;;;;;4989599;28;20129;-73
2022/08/03 03:33:06;;;;;;;5.45;2.53;;;17.10;99.90;;;;;;5005533;28;20120;-73
2022/08/03 03:35:34;;;;;;;6.80;2.33;;;17.10;99.90;;;;;;4987546;28;20089;-73
2022/08/03 03:37:59;;;;;;;7.55;2.58;;;17.00;99.90;;;;;;4993498;28;20042;-72
2022/08/03 03:40:26;;;;;;;7.38;2.53;;;17.00;99.90;;;;;;4993688;28;20092;-74
2022/08/03 03:42:52;;;;;;;6.65;2.67;;;17.00;99.90;;;;;;4995188;28;20125;-75
2022/08/03 03:45:19;;;;;;;5.53;2.50;;;17.00;99.90;;;;;;4989621;28;20124;-75
2022/08/03 03:47:45;;;;;;;6.35;3.05;;;17.00;99.90;;;;;;4999458;28;20444;-75
2022/08/03 03:50:10;;;;;;;7.40;2.63;;;17.00;99.90;;;;;;4995521;28;20113;-75
2022/08/03 03:52:36;;;;;;;6.63;2.75;;;17.00;99.90;;;;;;5010068;28;20495;-74
2022/08/03 03:55:02;;;;;;;5.43;2.72;;;17.00;99.90;;;;;;4990068;28;20053;-75
2022/08/03 03:57:28;;;;;;;5.95;2.58;;;17.10;99.90;;;;;;4990189;28;20034;-74
2022/08/03 03:59:54;;;;;;;5.55;2.50;;;17.10;99.90;;;;;;4990499;28;20042;-75
2022/08/03 04:02:19;;;;;;;5.78;2.63;;;17.00;99.90;;;;;;4991688;28;20092;-75
2022/08/03 04:13:19;;;;;;;6.30;2.95;;;17.10;99.90;;;;;;4994081;28;20144;-73
2022/08/03 04:15:47;;;;;;;7.22;3.33;;;17.10;99.90;;;;;;4998683;28;20486;-73
2022/08/03 04:18:14;;;;;;;7.05;3.00;;;17.10;99.90;;;;;;5004160;28;20475;-72
2022/08/03 04:20:44;;;;;;;7.50;3.28;;;17.10;99.90;;;;;;4994906;28;20038;-73
2022/08/03 04:23:12;;;;;;;6.18;2.85;;;17.10;99.90;;;;;;4994220;28;20049;-73
2022/08/03 04:25:39;;;;;;;5.65;3.00;;;17.10;99.90;;;;;;4992520;28;20084;-72
2022/08/03 04:28:05;;;;;;;10.25;3.65;;;17.20;99.90;;;;;;5006145;28;20049;-73
2022/08/03 04:30:34;;;;;;;6.57;2.90;;;17.20;99.90;;;;;;4993699;28;20037;-73
2022/08/03 04:33:01;;;;;;;5.15;2.70;;;17.20;99.90;;;;;;4993597;28;20049;-73
2022/08/03 04:35:31;;;;;;;5.07;2.97;;;17.20;99.90;;;;;;4993828;28;20033;-73
2022/08/03 04:38:02;;;;;;;9.10;3.35;;;17.20;99.90;;;;;;4993225;28;20044;-73
2022/08/03 04:40:33;;;;;;;7.45;3.08;;;17.30;99.90;;;;;;4987973;28;20046;-73
2022/08/03 04:43:00;;;;;;;6.30;3.30;;;17.30;99.90;;;;;;4981211;28;20038;-73
2022/08/03 04:45:31;;;;;;;6.40;2.80;;;17.30;99.90;;;;;;4995347;28;20048;-73
2022/08/03 04:47:58;;;;;;;4.78;2.78;;;17.40;99.90;;;;;;4993289;28;20048;-73
2022/08/03 04:50:26;;;;;;;5.93;3.30;;;17.40;99.90;;;;;;4993890;28;20487;-73
2022/08/03 04:52:52;;;;;;;10.23;3.30;;;17.40;99.90;;;;;;4994224;28;20049;-73
2022/08/03 04:55:31;;;;;;;5.05;2.83;;;17.50;99.90;;;;;;4993271;28;20022;-73
2022/08/03 04:57:58;;;;;;;8.23;3.13;;;17.60;99.90;;;;;;4991116;28;20136;-73
2022/08/03 05:00:24;;;;;;;7.78;2.90;;;17.60;99.90;;;;;;4992821;28;20137;-73
2022/08/03 05:02:50;;;;;;;10.20;3.38;;;17.70;99.90;;;;;;4993994;28;20053;-73
2022/08/03 05:05:16;;;;;;;5.47;3.15;;;17.80;99.90;;;;;;4993693;28;20062;-73
2022/08/03 05:07:43;;;;;;;7.60;3.10;;;17.90;99.90;;;;;;4992624;28;20104;-73
2022/08/03 05:10:10;;;;;;;10.10;3.05;;;17.90;99.90;;;;;;5009353;28;20073;-73
2022/08/03 05:12:35;;;;;;;7.43;3.08;;;18.00;99.90;;;;;;4990798;28;20037;-73
2022/08/03 05:15:01;;;;;;;8.20;3.00;;;18.10;99.90;;;;;;4993178;28;20033;-73
2022/08/03 05:17:27;;;;;;;7.88;3.00;;;18.20;99.90;;;;;;5011763;28;20386;-73
2022/08/03 05:19:53;;;;;;;6.80;3.53;;;18.20;99.90;;;;;;4993307;28;20471;-73
2022/08/03 05:22:20;;;;;;;7.50;3.47;;;18.30;99.90;;;;;;4992545;28;20034;-73
2022/08/03 05:24:45;;;;;;;7.22;3.10;;;18.50;99.90;;;;;;5002641;28;20072;-73
2022/08/03 05:27:16;;;;;;;7.22;3.05;;;18.60;99.90;;;;;;4994750;28;20092;-73
2022/08/03 05:29:42;;;;;;;6.32;2.85;;;18.70;99.90;;;;;;4992915;28;20056;-73
2022/08/03 05:32:08;;;;;;;7.80;2.97;;;18.80;99.90;;;;;;5010540;28;20376;-73
2022/08/03 05:34:33;;;;;;;8.10;3.13;;;18.90;99.90;;;;;;5008359;28;20034;-73
2022/08/03 05:36:59;;;;;;;9.60;3.78;;;19.00;99.90;;;;;;4991618;28;20049;-73
2022/08/03 05:39:24;;;;;;;7.32;3.05;;;19.20;99.90;;;;;;5010196;28;20050;-73
2022/08/03 05:41:50;;;;;;;7.95;3.20;;;19.30;99.90;;;;;;5006358;28;20057;-73
2022/08/03 05:44:15;;;;;;;8.50;3.63;;;19.40;99.90;;;;;;4995433;28;20050;-73
2022/08/03 05:46:41;;;;;;;12.48;3.75;;;19.50;99.90;;;;;;5009821;28;21844;-73
2022/08/03 05:49:07;;;;;;;10.05;3.00;;;19.60;99.90;;;;;;4992982;28;20049;-73
2022/08/03 05:51:32;;;;;;;10.50;3.20;;;19.70;99.90;;;;;;4987295;28;20077;-73
2022/08/03 05:53:58;;;;;;;9.07;3.35;;;19.80;99.90;;;;;;5007288;28;20046;-73
2022/08/03 05:56:26;;;;;;;8.13;3.63;;;19.90;99.90;;;;;;4988437;28;20049;-73
2022/08/03 05:58:52;;;;;;;11.50;3.47;;;20.10;99.90;;;;;;4990154;28;20042;-73
2022/08/03 06:01:22;;;;;;;11.23;3.70;;;20.90;99.90;;;;;;4997206;28;20100;-73
2022/08/03 06:03:49;;;;;;;9.90;3.50;;;21.20;99.90;;;;;;5001445;28;20049;-73
2022/08/03 06:06:15;;;;;;;8.18;2.55;;;21.90;99.90;;;;;;4977131;28;20115;-73
2022/08/03 06:08:42;;;;;;;8.85;2.80;;;23.10;99.90;;;;;;4980252;28;20046;-73
2022/08/03 06:11:08;;;;;;;11.23;3.05;;;23.20;99.90;;;;;;4978169;28;20038;-73
2022/08/03 06:13:34;;;;;;;10.50;2.70;;;23.70;99.90;;;;;;4991965;28;20041;-73
2022/08/03 06:16:00;;;;;;;8.75;2.78;;;24.50;99.90;;;;;;4975248;28;20788;-73
2022/08/03 06:18:26;;;;;;;8.70;2.65;;;25.40;99.90;;;;;;4989374;28;20121;-73
2022/08/03 06:20:52;;;;;;;7.35;2.55;;;26.40;99.90;;;;;;4992378;28;20046;-73
2022/08/03 06:23:18;;;;;;;9.75;2.58;;;;;;;;;;4993208;28;20038;-73
2022/08/03 06:25:45;;;;;;;9.77;3.08;;;26.90;99.70;;;;;;4993997;28;20489;-74
2022/08/03 06:28:12;;;;;;;9.20;2.42;;;27.60;96.80;;;;;;4992191;28;20030;-73
2022/08/03 06:30:39;;;;;;;10.07;2.63;;;27.60;97.40;;;;;;4992026;28;20104;-74
2022/08/03 06:33:04;;;;;;;8.43;2.67;;;28.20;97.70;;;;;;4993454;28;20034;-74
2022/08/03 06:35:30;;;;;;;6.30;2.30;;;28.40;97.40;;;;;;5020096;28;20771;-74
2022/08/03 06:37:56;;;;;;;9.18;2.28;;;28.70;96.20;;;;;;4991525;28;21762;-74
2022/08/03 06:40:30;;;;;;;11.85;2.80;;;28.60;95.90;;;;;;4992689;28;20046;-73
2022/08/03 06:43:00;;;;;;;8.98;2.70;;;28.40;96.40;;;;;;4993107;28;20129;-73
2022/08/03 06:45:30;;;;;;;7.40;2.50;;;28.80;94.80;;;;;;4992607;28;20116;-73
2022/08/03 06:48:06;;;;;;;6.72;2.25;;;29.00;93.90;;;;;;4992423;28;20419;-73
2022/08/03 06:50:34;;;;;;;13.38;3.00;;;29.00;94.60;;;;;;4994372;28;20395;-74
2022/08/03 06:53:00;;;;;;;6.35;2.33;;;29.00;94.40;;;;;;4992513;28;20053;-73
2022/08/03 06:55:26;;;;;;;12.23;2.72;;;29.00;94.30;;;;;;4993295;28;20092;-73
2022/08/03 06:57:52;;;;;;;10.52;2.20;;;29.20;93.70;;;;;;4993329;28;20068;-73
2022/08/03 07:00:18;;;;;;;8.60;2.42;;;28.90;94.40;;;;;;4996811;28;20121;-73
2022/08/03 07:02:44;;;;;;;9.35;2.42;;;28.70;93.30;;;;;;4997468;28;20064;-73
2022/08/03 07:05:10;;;;;;;8.45;2.70;;;28.90;94.50;;;;;;4999400;28;20045;-74
2022/08/03 07:07:36;;;;;;;9.30;2.53;;;29.30;93.60;;;;;;4996781;28;20093;-73
2022/08/03 07:10:03;;;;;;;9.57;2.60;;;29.80;93.00;;;;;;5012289;28;20048;-74
2022/08/03 07:12:30;;;;;;;10.95;2.85;;;29.50;93.00;;;;;;5006200;28;20410;-73
2022/08/03 07:14:57;;;;;;;7.95;3.00;;;29.30;93.20;;;;;;4997599;28;20534;-74
2022/08/03 07:17:23;;;;;;;7.82;2.50;;;29.60;92.60;;;;;;4992732;28;20180;-74
2022/08/03 07:19:49;;;;;;;8.50;2.25;;;29.50;92.80;;;;;;4995095;28;20751;-73
2022/08/03 07:22:14;;;;;;;11.65;2.40;;;29.50;93.40;;;;;;5010376;28;20026;-74
2022/08/03 07:24:43;;;;;;;6.40;2.60;;;30.00;92.30;;;;;;4996658;28;20046;-74
2022/08/03 07:27:09;;;;;;;7.47;2.65;;;30.30;91.80;;;;;;4995844;28;20038;-74
2022/08/03 07:29:35;;;;;;;8.13;2.30;;;30.80;91.60;;;;;;5016593;28;20107;-73
2022/08/03 07:32:04;;;;;;;8.15;2.47;;;31.60;90.70;;;;;;4994282;28;20046;-74
2022/08/03 07:34:30;;;;;;;10.02;2.40;;;32.00;89.60;;;;;;4996874;28;20121;-74
2022/08/03 07:36:56;;;;;;;7.47;2.47;;;32.50;85.60;;;;;;4973175;28;20515;-74
2022/08/03 07:39:22;;;;;;;10.18;2.65;;;32.90;87.40;;;;;;4993317;28;20033;-73
2022/08/03 07:41:50;;;;;;;9.65;2.60;;;32.90;86.70;;;;;;4996748;28;20087;-73
2022/08/03 07:44:19;;;;;;;7.70;2.80;;;33.30;87.10;;;;;;4994977;28;20042;-74
2022/08/03 07:46:45;;;;;;;7.63;2.53;;;34.20;96.90;;;;;;4995434;28;20077;-74
2022/08/03 07:49:10;;;;;;;8.68;2.67;;;34.00;81.90;;;;;;5005529;28;20471;-74
2022/08/03 07:51:36;;;;;;;9.15;2.65;;;33.90;79.40;;;;;;4993755;28;20065;-74
2022/08/03 07:54:02;;;;;;;7.43;2.40;;;33.90;81.30;;;;;;5010977;28;20488;-74
2022/08/03 07:56:28;;;;;;;7.10;2.35;;;34.00;81.10;;;;;;5006022;28;20038;-75
2022/08/03 07:58:54;;;;;;;7.65;2.83;;;34.20;81.20;;;;;;4988278;28;20041;-75
2022/08/03 08:01:21;;;;;;;9.63;2.47;;;34.20;78.50;;;;;;4992340;28;20084;-75
2022/08/03 08:03:47;;;;;;;7.65;2.70;;;33.60;79.70;;;;;;4990527;28;20132;-74
2022/08/03 08:06:13;;;;;;;7.28;2.42;;;33.30;77.30;;;;;;4993553;28;20492;-75
2022/08/03 08:08:39;;;;;;;7.25;2.58;;;32.40;80.90;;;;;;4995756;28;20054;-75
2022/08/03 08:11:05;;;;;;;12.23;3.53;;;31.20;83.70;;;;;;4993761;28;20528;-74
2022/08/03 08:13:31;;;;;;;9.48;2.80;;;30.00;86.60;;;;;;4995905;28;20096;-74
2022/08/03 08:15:56;;;;;;;8.65;2.85;;;29.60;87.10;;;;;;5011257;28;20487;-74
2022/08/03 08:18:22;;;;;;;9.85;2.60;;;29.10;89.60;;;;;;4994345;28;20034;-74
2022/08/03 08:20:48;;;;;;;11.80;3.00;;;28.80;90.40;;;;;;4987426;28;20499;-74
2022/08/03 08:23:14;;;;;;;8.80;2.83;;;28.30;91.00;;;;;;5009853;28;20075;-74
2022/08/03 08:25:40;;;;;;;6.93;2.42;;;28.10;91.40;;;;;;5011351;28;20064;-74
2022/08/03 08:28:06;;;;;;;8.73;2.92;;;27.80;92.20;;;;;;5011540;28;20050;-74
2022/08/03 08:30:32;;;;;;;8.30;2.20;;;27.50;91.80;;;;;;5008947;28;20476;-74
2022/08/03 08:32:58;;;;;;;8.40;2.65;;;27.30;92.90;;;;;;4994749;28;20041;-74
2022/08/03 08:35:24;;;;;;;10.02;2.80;;;27.10;93.50;;;;;;4993276;28;20057;-74
2022/08/03 08:37:50;;;;;;;5.95;2.20;;;26.90;94.00;;;;;;4994377;28;20041;-74
2022/08/03 08:40:15;;;;;;;10.20;2.65;;;26.80;94.80;;;;;;4993999;28;20100;-73
2022/08/03 08:42:42;;;;;;;9.27;2.92;;;26.90;94.90;;;;;;5011028;28;20663;-73
2022/08/03 08:45:10;;;;;;;5.93;2.97;;;26.80;95.60;;;;;;5010936;28;20042;-73
2022/08/03 08:47:39;;;;;;;6.72;2.47;;;26.60;95.80;;;;;;4994148;28;20046;-74
2022/08/03 08:50:06;;;;;;;10.10;2.88;;;26.60;95.80;;;;;;4994958;28;20046;-74
2022/08/03 08:52:34;;;;;;;10.02;2.80;;;26.60;95.10;;;;;;5002032;28;20113;-74
2022/08/03 08:55:02;;;;;;;9.50;3.17;;;26.60;96.20;;;;;;5011515;28;20442;-74
2022/08/03 08:57:34;;;;;;;7.60;2.70;;;26.60;96.40;;;;;;4995081;28;20042;-74
2022/08/03 09:00:00;;;;;;;9.25;2.97;;;26.70;97.20;;;;;;4993783;28;20037;-74
2022/08/03 09:02:29;;;;;;;8.35;3.08;;;26.80;95.80;;;;;;4999266;28;20438;-74
2022/08/03 09:04:55;;;;;;;10.23;3.67;;;26.60;97.20;;;;;;4995101;28;20395;-74
2022/08/03 09:07:21;;;;;;;11.25;2.97;;;26.60;97.20;;;;;;4994580;28;20439;-74
2022/08/03 09:09:47;;;;;;;9.27;2.28;;;26.70;96.10;;;;;;5002047;28;20092;-74
2022/08/03 09:12:12;;;;;;;8.25;2.60;;;26.80;95.20;;;;;;4994739;28;20046;-74
2022/08/03 09:14:38;;;;;;;10.27;2.60;;;26.80;95.90;;;;;;4994456;28;20084;-74
2022/08/03 09:17:04;;;;;;;13.48;3.28;;;26.80;95.90;;;;;;4993713;28;20096;-74
2022/08/03 09:19:31;;;;;;;11.82;2.85;;;26.80;97.20;;;;;;4992801;28;20117;-74
2022/08/03 09:22:15;;;;;;;9.52;2.85;;;26.90;95.90;;;;;;4992692;28;20395;-73
2022/08/03 09:25:13;;;;;;;10.52;2.53;;;27.00;96.30;;;;;;4989811;28;20034;-74
2022/08/03 09:27:43;;;;;;;9.30;2.83;;;27.30;96.60;;;;;;4979350;28;20060;-73
2022/08/03 09:30:17;;;;;;;8.48;2.42;;;27.40;96.30;;;;;;4994103;28;20050;-73
2022/08/03 09:32:44;;;;;;;8.13;2.63;;;27.40;96.20;;;;;;4984706;28;20046;-74
2022/08/03 09:35:12;;;;;;;10.32;2.78;;;27.50;94.80;;;;;;4994431;28;20065;-73
2022/08/03 09:37:37;;;;;;;11.27;3.00;;;27.60;95.50;;;;;;4994175;28;20042;-74
2022/08/03 09:40:04;;;;;;;7.65;2.10;;;27.50;95.00;;;;;;4994513;28;20057;-74
2022/08/03 09:42:29;;;;;;;7.80;2.90;;;27.60;95.70;;;;;;4994360;28;20109;-74
2022/08/03 09:44:56;;;;;;;8.70;2.70;;;27.50;95.10;;;;;;5011297;28;20181;-74
2022/08/03 09:47:38;;;;;;;12.57;2.88;;;27.50;94.00;;;;;;4993194;28;21370;-75
2022/08/03 09:50:05;;;;;;;;;;;27.40;95.90;;;;;;5003328;28;20042;-75
2022/08/03 09:52:33;;;;;;;14.25;2.63;;;27.40;96.70;;;;;;4993357;28;20367;-75
2022/08/03 09:55:01;;;;;;;7.05;2.38;;;27.40;97.30;;;;;;4993676;28;20042;-75
2022/08/03 09:57:29;;;;;;;11.68;3.45;;;27.50;96.50;;;;;;4995330;28;20056;-75
2022/08/03 10:00:06;;;;;;;12.40;2.50;;;27.50;95.30;;;;;;4991952;28;20083;-75
2022/08/03 10:02:32;;;;;;;8.30;2.75;;;27.60;96.10;;;;;;4991884;28;20069;-75
2022/08/03 10:04:57;;;;;;;8.68;2.58;;;27.70;94.80;;;;;;5009515;28;20131;-74
2022/08/03 10:07:23;;;;;;;8.40;2.75;;;27.80;93.30;;;;;;4993230;28;20057;-75
2022/08/03 10:10:00;;;;;;;7.80;2.45;;;27.80;94.40;;;;;;4992835;28;20057;-75
2022/08/03 10:12:26;;;;;;;10.77;2.40;;;27.80;95.10;;;;;;4993241;28;20068;-74
2022/08/03 10:14:53;;;;;;;10.80;2.90;;;27.80;94.20;;;;;;5001054;28;20051;-75
2022/08/03 10:17:20;;;;;;;9.85;2.67;;;27.80;94.30;;;;;;4993200;28;20069;-75
2022/08/03 10:19:46;;;;;;;9.52;2.90;;;27.80;93.60;;;;;;4993738;28;20080;-75
2022/08/03 10:22:22;;;;;;;7.03;2.60;;;27.80;93.90;;;;;;4991465;28;20073;-74
2022/08/03 10:25:02;;;;;;;7.28;2.80;;;27.90;93.60;;;;;;4993455;28;20123;-74
2022/08/03 10:27:35;;;;;;;8.13;2.47;;;28.00;95.30;;;;;;5006425;28;20050;-73
2022/08/03 10:30:03;;;;;;;10.80;2.50;;;28.10;93.70;;;;;;4989521;28;20309;-73
2022/08/03 10:32:54;;;;;;;9.45;2.45;;;28.10;93.90;;;;;;4995676;28;20116;-73
2022/08/03 10:35:20;;;;;;;10.05;2.78;;;28.10;94.90;;;;;;4995963;28;20087;-73
2022/08/03 10:37:59;;;;;;;8.35;2.40;;;28.20;95.00;;;;;;4997739;28;20112;-73
2022/08/03 10:40:27;;;;;;;10.82;2.72;;;28.20;94.70;;;;;;4996665;28;20053;-73
2022/08/03 10:42:55;;;;;;;11.18;2.65;;;28.40;94.30;;;;;;5000945;28;20124;-74
2022/08/03 10:45:29;;;;;;;9.05;2.10;;;28.50;93.20;;;;;;5006836;28;20504;-74
2022/08/03 10:47:56;;;;;;;9.73;2.70;;;28.50;93.50;;;;;;4994722;28;20042;-73
2022/08/03 10:50:24;;;;;;;7.18;2.30;;;28.60;93.60;;;;;;4999678;28;20038;-74
2022/08/03 10:52:57;;;;;;;7.43;2.45;;;28.70;93.60;;;;;;4994715;28;20455;-73
2022/08/03 10:58:37;;;;;;;10.85;2.15;;;28.80;92.90;;;;;;4991037;28;20046;-74
2022/08/03 11:01:12;;;;;;;10.45;2.60;;;28.90;93.30;;;;;;5010628;28;20048;-73
2022/08/03 11:03:53;;;;;;;10.60;2.80;;;29.00;92.10;;;;;;5010031;28;20042;-68
2022/08/03 11:06:25;;;;;;;10.88;2.58;;;29.00;91.90;;;;;;5012848;28;20072;-69
2022/08/03 11:09:15;;;;;;;11.77;2.70;;;28.90;93.20;;;;;;4981256;28;20058;-68
2022/08/03 11:11:43;;;;;;;9.15;2.60;;;28.80;92.50;;;;;;4990833;28;20053;-69
2022/08/03 11:14:11;;;;;;;11.95;3.25;;;28.70;93.10;;;;;;4996920;28;20104;-68
2022/08/03 11:16:40;;;;;;;8.38;2.85;;;28.70;92.30;;;;;;4995804;28;20060;-68
2022/08/03 11:19:11;;;;;;;10.43;2.72;;;28.70;93.20;;;;;;4996392;28;20395;-68
2022/08/03 11:21:49;;;;;;;8.75;2.33;;;28.60;93.40;;;;;;4988793;28;20065;-68
2022/08/03 11:24:37;;;;;;;12.30;3.03;;;28.60;93.90;;;;;;5006930;28;20396;-68
2022/08/03 11:27:23;;;;;;;14.25;2.83;;;28.60;92.50;;;;;;4990782;28;20554;-68
2022/08/03 11:30:01;;;;;;;10.20;2.75;;;28.50;92.90;;;;;;4995620;28;20123;-68
2022/08/03 11:32:39;;;;;;;10.93;3.13;;;28.50;93.90;;;;;;5013116;28;20511;-68
2022/08/03 11:35:16;;;;;;;13.95;3.10;;;28.50;94.10;;;;;;4994541;28;20041;-68
2022/08/03 11:37:57;;;;;;;14.07;3.90;;;28.60;93.10;;;;;;4995179;28;20038;-68
2022/08/03 11:40:47;;;;;;;14.00;3.15;;;28.60;93.50;;;;;;4996133;28;20514;-68
2022/08/03 11:43:21;;;;;;;11.50;2.90;;;28.70;92.70;;;;;;4991696;28;20132;-68
2022/08/03 11:46:12;;;;;;;17.27;3.50;;;28.60;92.90;;;;;;4996600;28;20049;-68
2022/08/03 11:48:39;;;;;;;13.07;3.65;;;28.60;93.60;;;;;;4995279;28;20117;-68
2022/08/03 11:51:06;;;;;;;14.18;3.58;;;28.50;92.20;;;;;;5012697;28;20049;-68
2022/08/03 11:53:33;;;;;;;13.43;4.53;;;28.30;93.20;;;;;;5013574;28;20042;-68
2022/08/03 11:56:00;;;;;;;10.15;3.42;;;28.30;93.40;;;;;;4996634;28;20042;-68
2022/08/03 11:58:27;;;;;;;13.48;3.30;;;28.40;93.90;;;;;;4996327;28;20045;-68
2022/08/03 12:01:01;;;;;;;10.75;3.05;;;28.50;92.50;;;;;;4996486;28;20395;-67
2022/08/03 12:03:32;;;;;;;14.18;3.08;;;28.60;92.30;;;;;;4993901;28;20038;-68
2022/08/03 12:06:00;;;;;;;14.35;3.47;;;28.70;92.20;;;;;;4996306;28;20384;-68
2022/08/03 12:08:25;;;;;;;14.20;3.92;;;28.80;93.20;;;;;;4994684;28;20050;-68
2022/08/03 12:10:51;;;;;;;13.02;3.40;;;28.90;93.30;;;;;;4994161;28;20204;-68
2022/08/03 12:13:18;;;;;;;11.80;3.35;;;29.00;92.10;;;;;;4994687;28;20038;-68
2022/08/03 12:15:53;;;;;;;12.93;3.30;;;29.10;91.70;;;;;;5009843;28;20038;-68
2022/08/03 12:18:21;;;;;;;14.13;2.83;;;29.20;92.40;;;;;;5007963;28;20049;-68
2022/08/03 12:20:50;;;;;;;16.98;3.45;;;29.30;90.70;;;;;;4991568;28;20042;-68
2022/08/03 12:23:16;;;;;;;11.32;3.15;;;29.40;91.40;;;;;;4994704;28;20043;-68
2022/08/03 12:25:44;;;;;;;12.93;2.63;;;29.40;91.00;;;;;;5009144;28;20072;-68
2022/08/03 12:28:15;;;;;;;11.75;3.00;;;29.50;90.30;;;;;;5011156;28;20878;-68
2022/08/03 12:30:42;;;;;;;10.80;2.90;;;29.50;90.10;;;;;;4995503;28;20596;-68
2022/08/03 12:33:18;;;;;;;11.98;2.83;;;29.50;89.20;;;;;;4984458;28;20531;-68
2022/08/03 12:35:45;;;;;;;13.40;2.90;;;29.50;88.80;;;;;;4995410;28;20081;-68
2022/08/03 12:38:14;;;;;;;14.02;2.78;;;29.50;88.50;;;;;;4993394;28;20555;-68
2022/08/03 12:40:40;;;;;;;14.77;3.20;;;29.50;88.10;;;;;;5009796;28;20112;-69
2022/08/03 12:43:11;;;;;;;10.02;2.42;;;29.60;89.10;;;;;;4999450;28;20046;-68
2022/08/03 12:45:37;;;;;;;9.60;2.33;;;29.60;83.50;;;;;;5009430;28;20054;-68
2022/08/03 12:48:06;;;;;;;8.13;2.17;;;29.60;84.50;;;;;;4995423;28;20046;-68
2022/08/03 12:50:35;;;;;;;10.93;2.33;;;29.50;84.90;;;;;;4987383;28;20053;-68
2022/08/03 12:53:03;;;;;;;10.07;2.22;;;29.60;85.80;;;;;;4994545;28;20033;-68
2022/08/03 12:55:35;;;;;;;11.70;2.90;;;29.60;86.10;;;;;;5006123;28;20049;-68
2022/08/03 12:58:01;;;;;;;10.57;2.40;;;29.70;85.30;;;;;;4996496;28;20041;-68
2022/08/03 13:00:29;;;;;;;8.73;2.08;;;29.70;83.60;;;;;;4995505;28;20076;-68
2022/08/03 13:03:01;;;;;;;7.57;2.00;;;29.80;85.10;;;;;;4993233;28;20050;-68
2022/08/03 13:05:27;;;;;;;8.13;2.53;;;29.80;84.90;;;;;;4992010;28;20042;-68